Time;durP1;ratioP1;P1;durP2;ratioP2;P2;SDS_P1;SDS_P2;PMS_P1;PMS_P2;Temp;Humidity;BMP_temperature;BMP_pressure;BME280_temperature;BME280_humidity;BME280_pressure;Samples;Min_cycle;Max_cycle;Signal;HPM_P1;HPM_P2
2022/07/12 00:00:46;;;;;;;;;;;;;;;;;;5032192;28;19923;-79
2022/07/12 00:03:12;;;;;;;;;;;;;;;;;;5037604;28;19943;-79
2022/07/12 00:05:37;;;;;;;;;;;;;;;;;;5020209;28;19948;-79
2022/07/12 00:08:02;;;;;;;;;;;;;;;;;;5035262;28;20436;-79
2022/07/12 00:10:27;;;;;;;;;;;;;;;;;;5033459;28;19913;-79
2022/07/12 00:12:54;;;;;;;;;;;;;;;;;;5038370;28;20134;-78
2022/07/12 00:15:19;;;;;;;;;;;;;;;;;;5034050;28;20285;-78
2022/07/12 00:17:44;;;;;;;;;;;;;;;;;;5029643;28;20007;-78
2022/07/12 00:20:09;;;;;;;;;;;;;;;;;;5034635;28;19913;-79
2022/07/12 00:22:34;;;;;;;;;;;;;;;;;;5035461;28;19971;-79
2022/07/12 00:24:59;;;;;;;;;;;;;;;;;;5034448;28;20430;-78
2022/07/12 00:27:25;;;;;;;;;;;;;;;;;;5031381;28;19948;-78
2022/07/12 00:29:50;;;;;;;;;;;;;;;;;;5037902;28;20008;-78
2022/07/12 00:32:15;;;;;;;;;;;;;;;;;;5038094;28;19991;-78
2022/07/12 00:34:40;;;;;;;;;;;;;;;;;;5042153;28;20437;-78
2022/07/12 00:37:06;;;;;;;;;;;;;;;;;;5036354;28;19913;-78
2022/07/12 00:39:31;;;;;;;;;;;;;;;;;;5037280;28;20020;-78
2022/07/12 00:41:56;;;;;;;;;;;;;;;;;;5040369;28;19920;-78
2022/07/12 00:44:21;;;;;;;;;;;;;;;;;;5033648;28;19978;-78
2022/07/12 00:46:46;;;;;;;;;;;;;;;;;;5040327;28;19936;-78
2022/07/12 00:49:15;;;;;;;;;;;;;;;;;;5037215;28;20350;-78
2022/07/12 00:51:40;;;;;;;;;;;;;;;;;;5024634;28;20382;-78
2022/07/12 00:54:05;;;;;;;;;;;;;;;;;;5036528;28;19949;-78
2022/07/12 00:56:30;;;;;;;;;;;;;;;;;;5040234;28;20092;-78
2022/07/12 00:58:55;;;;;;;;;;;;;;;;;;5042216;28;19925;-80
2022/07/12 01:01:21;;;;;;;;;;;;;;;;;;5037511;28;19933;-80
2022/07/12 01:03:46;;;;;;;;;;;;;;;;;;5042070;28;19959;-80
2022/07/12 01:06:11;;;;;;;;;;;;;;;;;;5041896;28;19950;-80
2022/07/12 01:08:36;;;;;;;;;;;;;;;;;;5042310;28;19916;-80
2022/07/12 01:11:01;;;;;;;;;;;;;;;;;;5037234;28;19919;-80
2022/07/12 01:13:26;;;;;;;;;;;;;;;;;;5041921;28;20000;-80
2022/07/12 01:15:52;;;;;;;;;;;;;;;;;;5042565;28;20075;-80
2022/07/12 01:18:17;;;;;;;;;;;;;;;;;;5045044;28;19924;-80
2022/07/12 01:20:42;;;;;;;;;;;;;;;;;;5040559;28;20391;-80
2022/07/12 01:23:07;;;;;;;;;;;;;;;;;;5037232;28;19947;-80
2022/07/12 01:25:32;;;;;;;;;;;;;;;;;;5046437;28;20263;-80
2022/07/12 01:27:58;;;;;;;;;;;;;;;;;;5036921;28;19981;-80
2022/07/12 01:30:23;;;;;;;;;;;;;;;;;;5039751;28;19920;-80
2022/07/12 01:32:48;;;;;;;;;;;;;;;;;;5038765;28;20179;-80
2022/07/12 01:35:13;;;;;;;;;;;;;;;;;;5039750;28;19913;-80
2022/07/12 01:37:38;;;;;;;;;;;;;;;;;;5021453;28;20481;-80
2022/07/12 01:40:03;;;;;;;;;;;;;;;;;;5035344;28;19917;-80
2022/07/12 01:42:29;;;;;;;;;;;;;;;;;;5039724;28;20397;-80
2022/07/12 01:44:55;;;;;;;;;;;;;;;;;;5037503;28;20012;-80
2022/07/12 01:47:20;;;;;;;;;;;;;;;;;;5037338;28;19921;-80
2022/07/12 01:49:45;;;;;;;;;;;;;;;;;;5038131;28;19974;-80
2022/07/12 01:52:10;;;;;;;;;;;;;;;;;;5034272;28;19923;-80
2022/07/12 01:54:35;;;;;;;;;;;;;;;;;;5035174;28;19974;-80
2022/07/12 01:57:00;;;;;;;;;;;;;;;;;;5041599;28;19999;-80
2022/07/12 01:59:26;;;;;;;;;;;;;;;;;;5036259;28;20300;-80
2022/07/12 02:01:51;;;;;;;;;;;;;;;;;;5025233;28;19909;-80
2022/07/12 02:04:16;;;;;;;;;;;;;;;;;;5020105;28;19935;-80
2022/07/12 02:06:41;;;;;;;;;;;;;;;;;;5039632;28;19913;-80
2022/07/12 02:09:07;;;;;;;;;;;;;;;;;;5037808;28;19910;-80
2022/07/12 02:11:32;;;;;;;;;;;;;;;;;;5032959;28;20425;-80
2022/07/12 02:13:57;;;;;;;;;;;;;;;;;;5037626;28;19916;-80
2022/07/12 02:16:22;;;;;;;;;;;;;;;;;;5037604;28;20389;-80
2022/07/12 02:18:47;;;;;;;;;;;;;;;;;;5038516;28;19917;-79
2022/07/12 02:21:12;;;;;;;;;;;;;;;;;;5035961;28;20413;-80
2022/07/12 02:23:38;;;;;;;;;;;;;;;;;;5035207;28;20004;-80
2022/07/12 02:26:03;;;;;;;;;;;;;;;;;;5030918;28;19960;-80
2022/07/12 02:28:29;;;;;;;;;;;;;;;;;;5035817;28;19921;-80
2022/07/12 02:30:54;;;;;;;;;;;;;;;;;;5037947;28;20059;-80
2022/07/12 02:33:19;;;;;;;;;;;;;;;;;;5033871;28;19973;-80
2022/07/12 02:35:44;;;;;;;;;;;;;;;;;;5035421;28;19916;-80
2022/07/12 02:38:10;;;;;;;;;;;;;;;;;;5034111;28;19972;-80
2022/07/12 02:40:53;;;;;;;;;;;;;;;;;;5018309;28;19913;-80
2022/07/12 02:43:18;;;;;;;;;;;;;;;;;;5033179;28;19913;-80
2022/07/12 02:45:43;;;;;;;;;;;;;;;;;;5037674;28;19913;-80
2022/07/12 02:48:10;;;;;;;;;;;;;;;;;;5042105;28;20029;-80
2022/07/12 02:50:35;;;;;;;;;;;;;;;;;;5039145;28;19979;-80
2022/07/12 02:53:00;;;;;;;;;;;;;;;;;;5034849;28;20225;-80
2022/07/12 02:55:26;;;;;;;;;;;;;;;;;;5019501;28;19920;-80
2022/07/12 02:57:51;;;;;;;;;;;;;;;;;;5030670;28;20020;-80
2022/07/12 03:00:16;;;;;;;;;;;;;;;;;;5034572;28;19924;-80
2022/07/12 03:02:41;;;;;;;;;;;;;;;;;;5035465;28;19975;-80
2022/07/12 03:05:06;;;;;;;;;;;;;;;;;;5039202;28;20380;-80
2022/07/12 03:07:31;;;;;;;;;;;;;;;;;;5034494;28;19916;-80
2022/07/12 03:09:57;;;;;;;;;;;;;;;;;;5040221;28;19917;-80
2022/07/12 03:12:22;;;;;;;;;;;;;;;;;;5038447;28;20290;-80
2022/07/12 03:14:47;;;;;;;;;;;;;;;;;;5032529;28;19913;-80
2022/07/12 03:17:12;;;;;;;;;;;;;;;;;;5032227;28;19921;-80
2022/07/12 03:19:37;;;;;;;;;;;;;;;;;;5033342;28;20067;-79
2022/07/12 03:22:02;;;;;;;;;;;;;;;;;;5034225;28;19917;-79
2022/07/12 03:24:28;;;;;;;;;;;;;;;;;;5039292;28;20405;-80
2022/07/12 03:26:53;;;;;;;;;;;;;;;;;;5036602;28;20003;-80
2022/07/12 03:29:18;;;;;;;;;;;;;;;;;;5043236;28;19980;-80
2022/07/12 03:31:43;;;;;;;;;;;;;;;;;;5036293;28;19963;-80
2022/07/12 03:34:08;;;;;;;;;;;;;;;;;;5030391;28;20314;-80
2022/07/12 03:36:33;;;;;;;;;;;;;;;;;;5035790;28;20385;-80
2022/07/12 03:38:59;;;;;;;;;;;;;;;;;;5034471;28;19970;-80
2022/07/12 03:41:24;;;;;;;;;;;;;;;;;;5033971;28;20439;-80
2022/07/12 03:43:49;;;;;;;;;;;;;;;;;;5039723;28;19935;-80
2022/07/12 03:46:14;;;;;;;;;;;;;;;;;;5039960;28;20390;-80
2022/07/12 03:48:40;;;;;;;;;;;;;;;;;;5035188;28;19939;-80
2022/07/12 03:51:05;;;;;;;;;;;;;;;;;;5032109;28;20363;-80
2022/07/12 03:53:30;;;;;;;;;;;;;;;;;;5036979;28;19948;-80
2022/07/12 03:55:55;;;;;;;;;;;;;;;;;;5033797;28;19913;-80
2022/07/12 03:58:20;;;;;;;;;;;;;;;;;;5034060;28;19932;-79
2022/07/12 04:00:45;;;;;;;;;;;;;;;;;;5037456;28;20256;-80
2022/07/12 04:03:11;;;;;;;;;;;;;;;;;;5031881;28;20418;-80
2022/07/12 04:05:36;;;;;;;;;;;;;;;;;;5035290;28;19921;-80
2022/07/12 04:08:01;;;;;;;;;;;;;;;;;;5039812;28;19917;-80
2022/07/12 04:10:27;;;;;;;;;;;;;;;;;;5042047;28;19953;-80
2022/07/12 04:12:52;;;;;;;;;;;;;;;;;;5033482;28;19913;-80
2022/07/12 04:15:17;;;;;;;;;;;;;;;;;;5034186;28;19936;-79
2022/07/12 04:17:42;;;;;;;;;;;;;;;;;;5038027;28;19921;-80
2022/07/12 04:20:07;;;;;;;;;;;;;;;;;;5034765;28;19940;-80
2022/07/12 04:22:33;;;;;;;;;;;;;;;;;;5032255;28;19917;-80
2022/07/12 04:24:58;;;;;;;;;;;;;;;;;;5034688;28;19919;-80
2022/07/12 04:27:26;;;;;;;;;;;;;;;;;;5032217;28;19913;-80
2022/07/12 04:29:51;;;;;;;;;;;;;;;;;;5039766;28;19917;-80
2022/07/12 04:32:16;;;;;;;;;;;;;;;;;;5033011;28;19919;-80
2022/07/12 04:34:41;;;;;;;;;;;;;;;;;;5036953;28;20361;-80
2022/07/12 04:37:06;;;;;;;;;;;;;;;;;;5033033;28;20378;-80
2022/07/12 04:39:32;;;;;;;;;;;;;;;;;;5031850;28;19931;-80
2022/07/12 04:41:57;;;;;;;;;;;;;;;;;;5042573;28;19918;-80
2022/07/12 04:44:22;;;;;;;;;;;;;;;;;;5033170;28;19913;-80
2022/07/12 04:46:47;;;;;;;;;;;;;;;;;;5037655;28;19993;-80
2022/07/12 04:49:12;;;;;;;;;;;;;;;;;;5035725;28;20285;-80
2022/07/12 04:51:37;;;;;;;;;;;;;;;;;;5035889;28;19929;-80
2022/07/12 04:54:03;;;;;;;;;;;;;;;;;;5034733;28;19913;-80
2022/07/12 04:56:28;;;;;;;;;;;;;;;;;;5031877;28;19921;-80
2022/07/12 04:58:53;;;;;;;;;;;;;;;;;;5033197;28;19961;-80
2022/07/12 05:01:18;;;;;;;;;;;;;;;;;;5019560;28;19913;-80
2022/07/12 05:03:44;;;;;;;;;;;;;;;;;;5036641;28;19917;-80
2022/07/12 05:06:09;;;;;;;;;;;;;;;;;;5027541;28;20290;-80
2022/07/12 05:08:34;;;;;;;;;;;;;;;;;;5033582;28;20291;-80
2022/07/12 05:10:59;;;;;;;;;;;;;;;;;;5032150;28;19913;-80
2022/07/12 05:13:25;;;;;;;;;;;;;;;;;;5034490;28;20383;-80
2022/07/12 05:15:50;;;;;;;;;;;;;;;;;;5034543;28;19953;-80
2022/07/12 05:18:15;;;;;;;;;;;;;;;;;;5032270;28;20403;-80
2022/07/12 05:20:41;;;;;;;;;;;;;;;;;;5033963;28;19924;-80
2022/07/12 05:23:06;;;;;;;;;;;;;;;;;;5033458;28;20336;-80
2022/07/12 05:25:31;;;;;;;;;;;;;;;;;;5031719;28;20054;-80
2022/07/12 05:27:56;;;;;;;;;;;;;;;;;;5035462;28;20034;-80
2022/07/12 05:30:22;;;;;;;;;;;;;;;;;;5034405;28;19935;-80
2022/07/12 05:32:47;;;;;;;;;;;;;;;;;;5039681;28;20091;-80
2022/07/12 05:35:12;;;;;;;;;;;;;;;;;;5037316;28;20283;-80
2022/07/12 05:37:37;;;;;;;;;;;;;;;;;;5019984;28;20038;-80
2022/07/12 05:40:02;;;;;;;;;;;;;;;;;;5031965;28;19936;-80
2022/07/12 05:42:28;;;;;;;;;;;;;;;;;;5032974;28;19921;-80
2022/07/12 05:44:53;;;;;;;;;;;;;;;;;;5040055;28;19920;-80
2022/07/12 05:47:18;;;;;;;;;;;;;;;;;;5031726;28;20015;-80
2022/07/12 05:49:43;;;;;;;;;;;;;;;;;;5033436;28;19913;-80
2022/07/12 05:54:52;;;;;;;;;;;;;;;;;;5036908;28;19973;-80
2022/07/12 05:57:17;;;;;;;;;;;;;;;;;;5033423;28;20423;-80
2022/07/12 05:59:42;;;;;;;;;;;;;;;;;;5036822;28;19923;-80
2022/07/12 06:02:08;;;;;;;;;;;;;;;;;;5031108;28;19924;-80
2022/07/12 06:04:33;;;;;;;;;;;;;;;;;;5032663;28;19913;-80
2022/07/12 06:06:58;;;;;;;;;;;;;;;;;;5036155;28;19920;-80
2022/07/12 06:09:23;;;;;;;;;;;;;;;;;;5032782;28;20090;-80
2022/07/12 06:11:48;;;;;;;;;;;;;;;;;;5019014;28;20043;-80
2022/07/12 06:14:13;;;;;;;;;;;;;;;;;;5033414;28;19917;-80
2022/07/12 06:16:39;;;;;;;;;;;;;;;;;;5040490;28;20025;-80
2022/07/12 06:19:04;;;;;;;;;;;;;;;;;;5035995;28;19924;-80
2022/07/12 06:21:29;;;;;;;;;;;;;;;;;;5034778;28;19937;-80
2022/07/12 06:23:54;;;;;;;;;;;;;;;;;;5037598;28;19920;-80
2022/07/12 06:26:20;;;;;;;;;;;;;;;;;;5039287;28;20156;-80
2022/07/12 06:28:45;;;;;;;;;;;;;;;;;;5042253;28;20366;-80
2022/07/12 06:31:10;;;;;;;;;;;;;;;;;;5019987;28;19963;-80
2022/07/12 06:33:36;;;;;;;;;;;;;;;;;;5039929;28;19913;-80
2022/07/12 06:36:01;;;;;;;;;;;;;;;;;;5041670;28;20394;-80
2022/07/12 06:38:26;;;;;;;;;;;;;;;;;;5034030;28;19921;-80
2022/07/12 06:40:51;;;;;;;;;;;;;;;;;;5033497;28;19943;-80
2022/07/12 06:43:16;;;;;;;;;;;;;;;;;;5032382;28;19951;-80
2022/07/12 06:45:41;;;;;;;;;;;;;;;;;;5031140;28;19913;-80
2022/07/12 06:48:07;;;;;;;;;;;;;;;;;;5036405;28;20349;-80
2022/07/12 06:50:32;;;;;;;;;;;;;;;;;;5037571;28;19990;-80
2022/07/12 06:52:57;;;;;;;;;;;;;;;;;;5019750;28;19952;-80
2022/07/12 06:55:22;;;;;;;;;;;;;;;;;;5036237;28;19912;-80
2022/07/12 06:57:48;;;;;;;;;;;;;;;;;;5051440;23;19929;-81
2022/07/12 07:00:13;;;;;;;;;;;;;;;;;;5031140;28;19913;-81
2022/07/12 07:02:39;;;;;;;;;;;;;;;;;;5031746;28;19913;-82
2022/07/12 07:05:04;;;;;;;;;;;;;;;;;;5033055;28;19944;-81
2022/07/12 07:07:29;;;;;;;;;;;;;;;;;;5032342;28;20363;-82
2022/07/12 07:09:54;;;;;;;;;;;;;;;;;;5011149;28;19921;-82
2022/07/12 07:12:20;;;;;;;;;;;;;;;;;;5027403;28;20072;-82
2022/07/12 07:14:45;;;;;;;;;;;;;;;;;;5021941;28;20420;-82
2022/07/12 07:17:10;;;;;;;;;;;;;;;;;;5019636;28;19924;-82
2022/07/12 07:19:35;;;;;;;;;;;;;;;;;;5023321;28;19921;-82
2022/07/12 07:22:00;;;;;;;;;;;;;;;;;;5025200;28;20024;-82
2022/07/12 07:24:26;;;;;;;;;;;;;;;;;;5025442;28;19934;-81
2022/07/12 07:26:51;;;;;;;;;;;;;;;;;;5026325;28;19917;-82
2022/07/12 07:32:00;;;;;;;;;;;;;;;;;;5021597;28;19944;-83
2022/07/12 07:34:25;;;;;;;;;;;;;;;;;;5024007;28;19921;-82
2022/07/12 07:36:50;;;;;;;;;;;;;;;;;;5021610;28;19921;-82
2022/07/12 07:39:15;;;;;;;;;;;;;;;;;;5024169;28;20375;-82
2022/07/12 07:41:40;;;;;;;;;;;;;;;;;;5030776;28;20454;-82
2022/07/12 07:44:06;;;;;;;;;;;;;;;;;;5024461;28;19955;-82
2022/07/12 07:46:31;;;;;;;;;;;;;;;;;;5019006;28;19959;-83
2022/07/12 07:48:56;;;;;;;;;;;;;;;;;;5019045;28;19922;-83
2022/07/12 07:51:21;;;;;;;;;;;;;;;;;;5001086;28;19960;-84
2022/07/12 07:53:46;;;;;;;;;;;;;;;;;;5019489;28;20016;-83
2022/07/12 07:56:11;;;;;;;;;;;;;;;;;;5017782;28;19944;-82
2022/07/12 07:58:37;;;;;;;;;;;;;;;;;;5018075;28;19917;-83
2022/07/12 08:01:02;;;;;;;;;;;;;;;;;;5020912;28;20160;-83
2022/07/12 08:03:27;;;;;;;;;;;;;;;;;;5022182;28;20334;-83
2022/07/12 08:05:52;;;;;;;;;;;;;;;;;;5025277;28;20012;-83
2022/07/12 08:08:18;;;;;;;;;;;;;;;;;;5019592;28;19929;-82
2022/07/12 08:10:43;;;;;;;;;;;;;;;;;;5020029;28;19996;-83
2022/07/12 08:13:09;;;;;;;;;;;;;;;;;;5018939;28;19925;-83
2022/07/12 08:15:34;;;;;;;;;;;;;;;;;;5019556;28;20008;-83
2022/07/12 08:17:59;;;;;;;;;;;;;;;;;;5020211;28;19929;-84
2022/07/12 08:20:24;;;;;;;;;;;;;;;;;;5018465;28;20628;-82
2022/07/12 08:22:49;;;;;;;;;;;;;;;;;;5021636;28;19917;-82
2022/07/12 08:25:15;;;;;;;;;;;;;;;;;;5021218;28;19921;-82
2022/07/12 08:27:40;;;;;;;;;;;;;;;;;;5017182;28;19918;-82
2022/07/12 08:30:05;;;;;;;;;;;;;;;;;;5014747;28;20294;-83
2022/07/12 08:32:30;;;;;;;;;;;;;;;;;;5003125;28;20282;-82
2022/07/12 08:34:55;;;;;;;;;;;;;;;;;;5015801;28;20298;-83
2022/07/12 08:37:20;;;;;;;;;;;;;;;;;;5014043;28;19983;-82
2022/07/12 08:39:46;;;;;;;;;;;;;;;;;;5014555;28;20000;-83
2022/07/12 08:42:11;;;;;;;;;;;;;;;;;;5018968;28;19928;-83
2022/07/12 08:44:36;;;;;;;;;;;;;;;;;;5015117;28;19922;-83
2022/07/12 08:47:01;;;;;;;;;;;;;;;;;;5019859;28;19920;-83
2022/07/12 08:49:26;;;;;;;;;;;;;;;;;;5021778;28;19917;-83
2022/07/12 08:51:51;;;;;;;;;;;;;;;;;;5018458;28;20000;-83
2022/07/12 08:54:17;;;;;;;;;;;;;;;;;;5026697;28;19928;-82
2022/07/12 08:56:42;;;;;;;;;;;;;;;;;;5022318;28;19968;-83
2022/07/12 08:59:07;;;;;;;;;;;;;;;;;;5020480;28;20326;-83
2022/07/12 09:01:32;;;;;;;;;;;;;;;;;;5020502;28;19923;-82
2022/07/12 09:03:58;;;;;;;;;;;;;;;;;;5023206;28;20016;-83
2022/07/12 09:06:23;;;;;;;;;;;;;;;;;;5001828;28;19924;-83
2022/07/12 09:08:48;;;;;;;;;;;;;;;;;;5019684;28;19921;-83
2022/07/12 09:11:13;;;;;;;;;;;;;;;;;;5004329;28;19923;-83
2022/07/12 09:13:38;;;;;;;;;;;;;;;;;;5022036;28;20344;-83
2022/07/12 09:16:03;;;;;;;;;;;;;;;;;;5021206;28;19960;-83
2022/07/12 09:18:29;;;;;;;;;;;;;;;;;;5018300;28;20007;-83
2022/07/12 09:20:54;;;;;;;;;;;;;;;;;;5002474;28;19924;-83
2022/07/12 09:23:19;;;;;;;;;;;;;;;;;;5025104;28;19921;-83
2022/07/12 09:25:45;;;;;;;;;;;;;;;;;;5021985;28;19917;-83
2022/07/12 09:28:10;;;;;;;;;;;;;;;;;;5017553;28;19916;-83
2022/07/12 09:30:37;;;;;;;;;;;;;;;;;;5003511;28;19921;-83
2022/07/12 09:38:30;;;;;;;;;;;;;;;;;;5017468;28;20753;-83
2022/07/12 09:40:55;;;;;;;;;;;;;;;;;;5020985;28;19917;-83
2022/07/12 09:43:21;;;;;;;;;;;;;;;;;;5022565;28;19917;-83
2022/07/12 09:45:47;;;;;;;;;;;;;;;;;;5026076;28;20497;-84
2022/07/12 09:48:12;;;;;;;;;;;;;;;;;;5028180;28;19923;-84
2022/07/12 09:50:37;;;;;;;;;;;;;;;;;;5004284;28;19917;-84
2022/07/12 09:53:02;;;;;;;;;;;;;;;;;;5022244;28;19921;-84
2022/07/12 09:55:28;;;;;;;;;;;;;;;;;;5021125;28;19979;-83
2022/07/12 09:57:53;;;;;;;;;;;;;;;;;;5023510;28;19968;-83
2022/07/12 10:00:18;;;;;;;;;;;;;;;;;;5021058;28;20338;-84
2022/07/12 10:02:43;;;;;;;;;;;;;;;;;;5018246;28;20008;-84
2022/07/12 10:05:08;;;;;;;;;;;;;;;;;;5019104;28;19940;-84
2022/07/12 10:07:34;;;;;;;;;;;;;;;;;;5024001;28;20000;-83
2022/07/12 10:09:59;;;;;;;;;;;;;;;;;;5025893;28;20038;-84
2022/07/12 10:12:24;;;;;;;;;;;;;;;;;;5023588;28;19917;-84
2022/07/12 10:14:49;;;;;;;;;;;;;;;;;;5005724;28;20020;-83
2022/07/12 10:17:14;;;;;;;;;;;;;;;;;;5020369;28;19921;-84
2022/07/12 10:19:39;;;;;;;;;;;;;;;;;;5023112;28;19929;-83
2022/07/12 10:22:05;;;;;;;;;;;;;;;;;;5022173;28;20009;-84
2022/07/12 10:24:30;;;;;;;;;;;;;;;;;;5022046;28;19917;-85
2022/07/12 10:26:55;;;;;;;;;;;;;;;;;;5024508;28;19967;-83
2022/07/12 10:29:20;;;;;;;;;;;;;;;;;;5019225;28;19925;-83
2022/07/12 10:31:46;;;;;;;;;;;;;;;;;;5024316;28;19921;-83
2022/07/12 10:34:11;;;;;;;;;;;;;;;;;;5025395;28;19921;-84
2022/07/12 10:36:36;;;;;;;;;;;;;;;;;;5026915;28;19917;-83
2022/07/12 10:39:01;;;;;;;;;;;;;;;;;;5020127;28;19917;-83
2022/07/12 10:41:26;;;;;;;;;;;;;;;;;;5021223;28;19925;-83
2022/07/12 10:44:04;;;;;;;;;;;;;;;;;;5022433;28;20497;-84
2022/07/12 10:46:29;;;;;;;;;;;;;;;;;;5018361;28;19967;-84
2022/07/12 10:48:54;;;;;;;;;;;;;;;;;;5008093;28;20286;-83
2022/07/12 10:51:20;;;;;;;;;;;;;;;;;;5014346;28;19928;-84
2022/07/12 10:53:48;;;;;;;;;;;;;;;;;;5014834;28;20019;-84
2022/07/12 10:56:17;;;;;;;;;;;;;;;;;;5003924;28;19924;-84
2022/07/12 10:58:42;;;;;;;;;;;;;;;;;;5022429;28;20375;-83
2022/07/12 11:01:08;;;;;;;;;;;;;;;;;;5017235;28;19920;-84
2022/07/12 11:03:33;;;;;;;;;;;;;;;;;;5025214;28;19987;-83
2022/07/12 11:05:58;;;;;;;;;;;;;;;;;;5018915;28;20003;-83
2022/07/12 11:08:23;;;;;;;;;;;;;;;;;;5013637;28;19928;-84
2022/07/12 11:10:48;;;;;;;;;;;;;;;;;;5019479;28;20004;-83
2022/07/12 11:13:14;;;;;;;;;;;;;;;;;;5019310;28;19918;-83
2022/07/12 11:15:39;;;;;;;;;;;;;;;;;;5015476;28;20085;-83
2022/07/12 11:18:04;;;;;;;;;;;;;;;;;;4999424;28;19920;-84
2022/07/12 11:20:30;;;;;;;;;;;;;;;;;;5020051;28;20290;-84
2022/07/12 11:22:55;;;;;;;;;;;;;;;;;;5015449;28;19939;-83
2022/07/12 11:25:20;;;;;;;;;;;;;;;;;;5019500;28;19917;-84
2022/07/12 11:27:45;;;;;;;;;;;;;;;;;;5020154;28;19917;-84
2022/07/12 11:30:10;;;;;;;;;;;;;;;;;;5020160;28;19917;-85
2022/07/12 11:32:36;;;;;;;;;;;;;;;;;;5019476;28;19967;-84
2022/07/12 11:35:01;;;;;;;;;;;;;;;;;;5001866;28;19929;-84
2022/07/12 11:37:26;;;;;;;;;;;;;;;;;;5018950;28;19927;-84
2022/07/12 11:39:51;;;;;;;;;;;;;;;;;;5021230;28;19921;-84
2022/07/12 11:42:16;;;;;;;;;;;;;;;;;;5023266;28;20366;-84
2022/07/12 11:44:42;;;;;;;;;;;;;;;;;;5003223;28;20375;-83
2022/07/12 11:47:07;;;;;;;;;;;;;;;;;;5021406;28;19924;-83
2022/07/12 11:49:32;;;;;;;;;;;;;;;;;;5018891;28;19913;-83
2022/07/12 11:51:58;;;;;;;;;;;;;;;;;;5019304;28;19925;-83
2022/07/12 11:54:23;;;;;;;;;;;;;;;;;;5017877;28;20019;-84
2022/07/12 11:56:48;;;;;;;;;;;;;;;;;;5021756;28;19924;-83
2022/07/12 11:59:13;;;;;;;;;;;;;;;;;;5020973;28;20008;-84
2022/07/12 12:01:38;;;;;;;;;;;;;;;;;;5017260;28;19929;-83
2022/07/12 12:04:03;;;;;;;;;;;;;;;;;;5023818;28;20278;-83
2022/07/12 12:06:29;;;;;;;;;;;;;;;;;;5024774;28;19921;-84
2022/07/12 12:08:54;;;;;;;;;;;;;;;;;;5017893;28;20301;-83
2022/07/12 12:11:19;;;;;;;;;;;;;;;;;;5024240;28;19995;-83
2022/07/12 12:13:44;;;;;;;;;;;;;;;;;;5020883;28;19913;-83
2022/07/12 12:16:09;;;;;;;;;;;;;;;;;;5015282;28;19924;-83
2022/07/12 12:18:35;;;;;;;;;;;;;;;;;;5016175;28;20003;-83
2022/07/12 12:21:00;;;;;;;;;;;;;;;;;;5021552;28;20400;-83
2022/07/12 12:23:25;;;;;;;;;;;;;;;;;;5024043;28;19921;-85
2022/07/12 12:25:50;;;;;;;;;;;;;;;;;;5018364;28;19940;-84
2022/07/12 12:28:15;;;;;;;;;;;;;;;;;;5015170;28;19925;-84
2022/07/12 12:30:41;;;;;;;;;;;;;;;;;;5024035;28;19972;-83
2022/07/12 12:33:06;;;;;;;;;;;;;;;;;;5021720;28;20042;-82
2022/07/12 12:35:31;;;;;;;;;;;;;;;;;;5017704;28;19920;-83
2022/07/12 12:37:56;;;;;;;;;;;;;;;;;;5025998;28;20405;-83
2022/07/12 12:40:22;;;;;;;;;;;;;;;;;;5020770;28;20366;-83
2022/07/12 12:42:47;;;;;;;;;;;;;;;;;;5023762;28;19979;-83
2022/07/12 12:45:12;;;;;;;;;;;;;;;;;;5017912;28;20000;-83
2022/07/12 12:47:38;;;;;;;;;;;;;;;;;;5022014;28;19913;-83
2022/07/12 12:50:03;;;;;;;;;;;;;;;;;;5023984;28;19924;-83
2022/07/12 12:52:28;;;;;;;;;;;;;;;;;;5025130;28;19924;-83
2022/07/12 12:54:54;;;;;;;;;;;;;;;;;;5020530;28;20058;-83
2022/07/12 12:57:19;;;;;;;;;;;;;;;;;;5023735;28;19921;-84
2022/07/12 12:59:44;;;;;;;;;;;;;;;;;;5026271;28;19919;-84
2022/07/12 13:02:09;;;;;;;;;;;;;;;;;;5018743;28;19967;-83
2022/07/12 13:04:34;;;;;;;;;;;;;;;;;;5023470;28;19960;-84
2022/07/12 13:07:00;;;;;;;;;;;;;;;;;;5018632;28;19984;-84
2022/07/12 13:09:25;;;;;;;;;;;;;;;;;;5023958;28;20484;-83
2022/07/12 13:11:50;;;;;;;;;;;;;;;;;;5006243;28;19917;-84
2022/07/12 13:14:15;;;;;;;;;;;;;;;;;;5022601;28;20012;-83
2022/07/12 13:16:41;;;;;;;;;;;;;;;;;;5023637;28;19921;-83
2022/07/12 13:19:07;;;;;;;;;;;;;;;;;;5023588;28;19925;-83
2022/07/12 13:21:32;;;;;;;;;;;;;;;;;;5021702;28;19917;-83
2022/07/12 13:23:57;;;;;;;;;;;;;;;;;;5022942;28;19922;-84
2022/07/12 13:26:22;;;;;;;;;;;;;;;;;;5022430;28;20280;-83
2022/07/12 13:28:47;;;;;;;;;;;;;;;;;;5021508;28;19913;-82
2022/07/12 13:31:13;;;;;;;;;;;;;;;;;;5022803;28;19917;-83
2022/07/12 13:33:38;;;;;;;;;;;;;;;;;;5017912;28;20011;-84
2022/07/12 13:36:03;;;;;;;;;;;;;;;;;;5006666;28;19917;-84
2022/07/12 13:38:28;;;;;;;;;;;;;;;;;;5022824;28;19969;-84
2022/07/12 13:40:53;;;;;;;;;;;;;;;;;;5022784;28;20284;-83
2022/07/12 13:43:18;;;;;;;;;;;;;;;;;;5001320;28;19921;-84
2022/07/12 13:45:44;;;;;;;;;;;;;;;;;;5022803;28;20083;-84
2022/07/12 13:48:09;;;;;;;;;;;;;;;;;;5022141;28;19967;-83
2022/07/12 13:50:34;;;;;;;;;;;;;;;;;;5005316;28;19918;-84
2022/07/12 13:52:59;;;;;;;;;;;;;;;;;;5022890;28;19928;-83
2022/07/12 13:55:24;;;;;;;;;;;;;;;;;;5024335;28;20354;-83
2022/07/12 13:57:50;;;;;;;;;;;;;;;;;;5022372;28;19921;-83
2022/07/12 14:00:15;;;;;;;;;;;;;;;;;;5022342;28;19914;-83
2022/07/12 14:02:40;;;;;;;;;;;;;;;;;;5020217;28;19940;-84
2022/07/12 14:05:06;;;;;;;;;;;;;;;;;;5024796;28;19917;-83
2022/07/12 14:07:31;;;;;;;;;;;;;;;;;;5023023;28;19924;-84
2022/07/12 14:09:56;;;;;;;;;;;;;;;;;;5022485;28;19923;-83
2022/07/12 14:12:21;;;;;;;;;;;;;;;;;;5023838;28;19921;-84
2022/07/12 14:17:30;;;;;;;;;;;;;;;;;;5018867;28;19971;-84
2022/07/12 14:19:55;;;;;;;;;;;;;;;;;;5019598;28;19921;-84
2022/07/12 14:22:21;;;;;;;;;;;;;;;;;;5021367;28;20104;-83
2022/07/12 14:24:46;;;;;;;;;;;;;;;;;;5021250;28;19921;-84
2022/07/12 14:27:11;;;;;;;;;;;;;;;;;;5019528;28;20228;-84
2022/07/12 14:29:36;;;;;;;;;;;;;;;;;;5018822;28;20389;-84
2022/07/12 14:32:01;;;;;;;;;;;;;;;;;;5028366;28;19921;-83
2022/07/12 14:34:27;;;;;;;;;;;;;;;;;;5018690;28;20000;-84
2022/07/12 14:36:52;;;;;;;;;;;;;;;;;;5018798;28;19957;-84
2022/07/12 14:39:17;;;;;;;;;;;;;;;;;;5017131;28;19932;-84
2022/07/12 14:41:42;;;;;;;;;;;;;;;;;;5017454;28;19920;-84
2022/07/12 14:44:08;;;;;;;;;;;;;;;;;;5020157;28;20051;-84
2022/07/12 14:46:33;;;;;;;;;;;;;;;;;;5022904;28;19917;-84
2022/07/12 14:49:00;;;;;;;;;;;;;;;;;;5018596;28;21621;-84
2022/07/12 14:51:25;;;;;;;;;;;;;;;;;;5015972;28;20012;-84
2022/07/12 14:53:52;;;;;;;;;;;;;;;;;;5021893;28;19917;-84
2022/07/12 14:56:17;;;;;;;;;;;;;;;;;;5022102;28;20264;-85
2022/07/12 14:58:42;;;;;;;;;;;;;;;;;;5020332;28;20110;-84
2022/07/12 15:01:07;;;;;;;;;;;;;;;;;;5022976;28;20007;-85
2022/07/12 15:03:34;;;;;;;;;;;;;;;;;;5022408;28;20294;-85
2022/07/12 15:05:59;;;;;;;;;;;;;;;;;;5019132;28;19933;-84
2022/07/12 15:08:24;;;;;;;;;;;;;;;;;;5015271;28;19983;-85
2022/07/12 15:10:49;;;;;;;;;;;;;;;;;;5021346;28;19999;-85
2022/07/12 15:13:14;;;;;;;;;;;;;;;;;;5018360;28;20141;-85
2022/07/12 15:15:40;;;;;;;;;;;;;;;;;;5017663;28;20011;-85
2022/07/12 15:18:05;;;;;;;;;;;;;;;;;;5023426;28;19921;-84
2022/07/12 15:20:30;;;;;;;;;;;;;;;;;;5026233;28;20460;-84
2022/07/12 15:22:56;;;;;;;;;;;;;;;;;;5017404;28;19953;-84
2022/07/12 15:25:21;;;;;;;;;;;;;;;;;;5023528;28;19965;-84
2022/07/12 15:27:46;;;;;;;;;;;;;;;;;;5019032;28;19921;-84
2022/07/12 15:30:12;;;;;;;;;;;;;;;;;;5025074;28;19913;-85
2022/07/12 15:32:37;;;;;;;;;;;;;;;;;;5024693;28;19921;-85
2022/07/12 15:35:02;;;;;;;;;;;;;;;;;;5023723;28;19925;-85
2022/07/12 15:37:27;;;;;;;;;;;;;;;;;;5025769;28;19917;-84
2022/07/12 15:39:53;;;;;;;;;;;;;;;;;;5028011;28;19913;-85
2022/07/12 15:42:18;;;;;;;;;;;;;;;;;;5027359;28;19928;-84
2022/07/12 15:44:43;;;;;;;;;;;;;;;;;;5018491;28;19923;-84
2022/07/12 15:47:13;;;;;;;;;;;;;;;;;;5025901;28;19917;-85
2022/07/12 15:49:38;;;;;;;;;;;;;;;;;;5013362;28;19921;-84
2022/07/12 15:54:47;;;;;;;;;;;;;;;;;;5020417;28;20437;-84
2022/07/12 15:57:18;;;;;;;;;;;;;;;;;;5018199;28;19918;-84
2022/07/12 15:59:43;;;;;;;;;;;;;;;;;;5017147;28;19921;-85
2022/07/12 16:02:09;;;;;;;;;;;;;;;;;;5016237;28;19917;-84
2022/07/12 16:04:34;;;;;;;;;;;;;;;;;;5023679;28;20686;-83
2022/07/12 16:07:02;;;;;;;;;;;;;;;;;;5022840;28;20501;-83
2022/07/12 16:09:27;;;;;;;;;;;;;;;;;;5017011;28;19948;-84
2022/07/12 16:11:52;;;;;;;;;;;;;;;;;;5019771;28;20007;-83
2022/07/12 16:14:18;;;;;;;;;;;;;;;;;;5024178;28;20001;-83
2022/07/12 16:16:44;;;;;;;;;;;;;;;;;;5023118;28;19972;-83
2022/07/12 16:19:09;;;;;;;;;;;;;;;;;;5025693;28;20345;-84
2022/07/12 16:21:34;;;;;;;;;;;;;;;;;;5025158;28;20004;-83
2022/07/12 16:23:59;;;;;;;;;;;;;;;;;;5020732;28;19955;-83
2022/07/12 16:26:24;;;;;;;;;;;;;;;;;;5017392;28;19913;-84
2022/07/12 16:28:50;;;;;;;;;;;;;;;;;;5020719;28;19917;-84
2022/07/12 16:31:15;;;;;;;;;;;;;;;;;;5013954;28;19928;-84
2022/07/12 16:33:41;;;;;;;;;;;;;;;;;;5019322;28;20538;-84
2022/07/12 16:36:07;;;;;;;;;;;;;;;;;;5039972;23;19932;-81
2022/07/12 16:38:32;;;;;;;;;;;;;;;;;;5028546;28;20329;-82
2022/07/12 16:40:57;;;;;;;;;;;;;;;;;;5029863;28;19924;-82
2022/07/12 16:43:22;;;;;;;;;;;;;;;;;;5025785;28;19952;-82
2022/07/12 16:45:47;;;;;;;;;;;;;;;;;;5008778;28;19921;-81
2022/07/12 16:48:12;;;;;;;;;;;;;;;;;;5030478;28;20374;-81